Time;durP1;ratioP1;P1;durP2;ratioP2;P2;SDS_P1;SDS_P2;PMS_P1;PMS_P2;Temp;Humidity;BMP_temperature;BMP_pressure;BME280_temperature;BME280_humidity;BME280_pressure;Samples;Min_cycle;Max_cycle;Signal;HPM_P1;HPM_P2
2021/12/20 00:01:41;;;;;;;;;6.75;5.50;;;;;21.14;39.33;102341.94;5012318;28;51196;-53
2021/12/20 00:04:07;;;;;;;;;5.75;5.75;;;;;21.12;39.24;102341.28;5006941;28;52148;-52
2021/12/20 00:06:32;;;;;;;;;6.25;6.00;;;;;21.10;38.94;102340.63;5009545;28;51037;-54
2021/12/20 00:08:57;;;;;;;;;5.50;5.50;;;;;21.08;39.45;102337.22;5005038;28;51190;-53
2021/12/20 00:11:23;;;;;;;;;6.00;5.00;;;;;21.06;38.94;102330.19;5016490;28;51312;-51
2021/12/20 00:13:48;;;;;;;;;4.25;3.75;;;;;21.03;39.38;102336.91;5009859;28;59756;-55
2021/12/20 00:16:13;;;;;;;;;5.75;5.25;;;;;21.00;39.48;102326.28;5021241;28;51117;-52
2021/12/20 00:18:39;;;;;;;;;3.25;3.00;;;;;20.99;38.96;102321.81;5012360;28;51106;-52
2021/12/20 00:21:04;;;;;;;;;5.00;5.00;;;;;20.96;39.07;102333.22;4996982;28;51059;-52
2021/12/20 00:23:30;;;;;;;;;4.25;4.25;;;;;20.95;39.54;102334.28;4997987;28;51022;-54
2021/12/20 00:25:56;;;;;;;;;5.25;5.25;;;;;20.93;39.01;102328.06;5004061;28;51553;-53
2021/12/20 00:28:21;;;;;;;;;4.00;4.00;;;;;20.90;39.06;102322.97;5010249;28;51254;-55
2021/12/20 00:30:47;;;;;;;;;6.00;6.00;;;;;20.88;39.39;102328.66;5008654;28;51190;-53
2021/12/20 00:33:14;;;;;;;;;4.75;4.75;;;;;20.87;39.12;102328.84;5000141;28;52143;-52
2021/12/20 00:35:39;;;;;;;;;6.00;5.00;;;;;20.85;39.09;102328.19;5017412;28;51152;-54
2021/12/20 00:40:50;;;;;;;;;5.75;5.25;;;;;20.82;39.16;102328.56;5007659;28;51044;-55
2021/12/20 00:43:16;;;;;;;;;6.00;6.00;;;;;20.79;39.42;102326.19;4998616;28;50964;-53
2021/12/20 00:45:42;;;;;;;;;4.00;4.00;;;;;20.77;39.09;102320.00;5002845;28;51288;-52
2021/12/20 00:48:07;;;;;;;;;5.00;5.00;;;;;20.74;39.04;102316.59;5018987;28;51163;-54
2021/12/20 00:50:33;;;;;;;;;6.00;4.50;;;;;20.74;39.21;102319.34;5006558;28;51711;-54
2021/12/20 00:52:59;;;;;;;;;7.00;5.25;;;;;20.73;38.82;102320.38;5012108;28;51297;-54
2021/12/20 00:55:26;;;;;;;;;4.00;4.00;;;;;20.71;39.36;102314.19;4991577;28;51241;-53
2021/12/20 00:57:53;;;;;;;;;6.75;5.00;;;;;20.69;39.43;102308.03;5016552;28;51176;-55
2021/12/20 01:00:25;;;;;;;;;5.25;5.00;;;;;20.68;39.39;102310.97;5002682;28;51063;-54
2021/12/20 01:02:51;;;;;;;;;6.00;3.25;;;;;20.67;39.19;102317.53;5012980;28;52359;-52
2021/12/20 01:05:18;;;;;;;;;7.75;6.00;;;;;20.65;39.38;102323.22;5002742;28;51116;-54
2021/12/20 01:07:43;;;;;;;;;5.00;5.00;;;;;20.63;39.14;102306.03;5011052;28;51175;-55
2021/12/20 01:10:09;;;;;;;;;5.75;5.00;;;;;20.62;39.61;102301.56;5010327;28;51388;-54
2021/12/20 01:12:48;;;;;;;;;7.50;5.75;;;;;20.62;39.35;102309.81;5016183;28;51825;-54
2021/12/20 01:15:20;;;;;;;;;3.25;3.25;;;;;20.61;39.43;102301.75;5015801;28;51274;-55
2021/12/20 01:17:50;;;;;;;;;5.25;4.00;;;;;20.58;39.49;102300.25;5017384;28;51173;-53
2021/12/20 01:20:15;;;;;;;;;2.75;2.75;;;;;20.57;39.62;102294.94;5000611;28;51284;-55
2021/12/20 01:22:43;;;;;;;;;4.50;4.50;;;;;20.57;39.31;102295.78;4998113;28;52466;-52
2021/12/20 01:25:08;;;;;;;;;4.00;4.00;;;;;20.55;39.11;102286.84;5012505;28;51392;-54
2021/12/20 01:27:34;;;;;;;;;4.00;3.25;;;;;20.54;39.58;102293.41;5015044;28;51186;-54
2021/12/20 01:29:59;;;;;;;;;6.00;4.00;;;;;20.53;39.84;102290.81;5004961;28;51157;-48
2021/12/20 01:32:25;;;;;;;;;3.25;3.25;;;;;20.52;39.61;102292.72;5006601;28;51268;-53
2021/12/20 01:34:50;;;;;;;;;4.00;4.00;;;;;20.51;39.32;102293.75;4997141;28;51050;-52
2021/12/20 01:37:15;;;;;;;;;5.25;4.25;;;;;20.51;39.27;102295.66;5011429;28;51221;-54
2021/12/20 01:39:41;;;;;;;;;3.00;3.00;;;;;20.49;39.38;102289.50;5005014;28;51044;-52
2021/12/20 01:42:07;;;;;;;;;5.00;4.00;;;;;20.50;39.52;102293.97;4996801;28;51075;-52
2021/12/20 01:44:32;;;;;;;;;5.00;4.25;;;;;20.47;39.21;102295.19;4996804;28;51070;-55
2021/12/20 01:47:01;;;;;;;;;5.00;5.00;;;;;20.45;39.17;102287.13;4996758;28;51093;-52
2021/12/20 01:49:26;;;;;;;;;5.50;4.00;;;;;20.45;39.33;102295.38;5005528;28;51260;-52
2021/12/20 01:54:23;;;;;;;;;4.00;4.00;;;;;20.42;39.79;102289.34;5015831;28;50986;-51
2021/12/20 01:56:48;;;;;;;;;5.00;4.75;;;;;20.42;39.52;102283.84;5016445;28;51157;-50
2021/12/20 01:59:14;;;;;;;;;4.00;4.00;;;;;20.42;39.79;102294.84;5011467;28;51255;-54
2021/12/20 02:01:41;;;;;;;;;6.00;4.50;;;;;20.40;39.48;102288.69;5011928;28;51833;-50
2021/12/20 02:04:09;;;;;;;;;5.00;4.00;;;;;20.40;39.83;102283.19;4998019;28;51148;-54
2021/12/20 02:06:38;;;;;;;;;4.25;4.25;;;;;20.37;39.81;102273.41;5004028;28;51144;-56
2021/12/20 02:09:05;;;;;;;;;7.25;4.00;;;;;20.36;39.65;102279.97;5007340;28;51121;-53
2021/12/20 02:11:32;;;;;;;;;6.75;5.00;;;;;20.36;39.57;102276.34;5003378;28;51197;-53
2021/12/20 02:13:57;;;;;;;;;3.50;3.00;;;;;20.36;39.27;102273.59;5030993;28;51455;-55
2021/12/20 02:16:23;;;;;;;;;2.50;2.50;;;;;20.34;39.88;102273.78;5006580;28;51809;-52
2021/12/20 02:18:48;;;;;;;;;5.25;4.25;;;;;20.33;39.60;102274.84;5006386;28;51171;-52
2021/12/20 02:21:14;;;;;;;;;5.75;4.25;;;;;20.33;39.88;102279.50;5012855;28;51812;-52
2021/12/20 02:23:40;;;;;;;;;4.50;4.50;;;;;20.32;39.37;102277.75;5007157;28;51053;-53
2021/12/20 02:26:05;;;;;;;;;5.75;4.25;;;;;20.31;39.71;102276.91;4998225;28;51154;-52
2021/12/20 02:28:37;;;;;;;;;4.00;4.00;;;;;20.31;39.58;102278.78;5002124;28;51136;-54
2021/12/20 02:39:08;;;;;;;;;5.00;4.25;;;;;20.27;39.52;102274.72;5004304;28;51098;-53
2021/12/20 02:41:34;;;;;;;;;7.00;5.50;;;;;20.27;39.25;102274.72;5007972;28;52953;-51
2021/12/20 02:44:06;;;;;;;;;3.00;3.00;;;;;20.26;39.82;102267.50;5000032;28;51104;-54
2021/12/20 02:49:12;;;;;;;;;6.00;5.00;;;;;20.24;39.64;102259.44;5016714;28;52426;-49
2021/12/20 02:51:39;;;;;;;;;6.25;6.25;;;;;20.22;39.29;102256.03;5004738;28;50964;-52
2021/12/20 02:54:07;;;;;;;;;8.00;5.75;;;;;20.22;39.64;102261.53;5004010;28;51467;-54
2021/12/20 02:56:32;;;;;;;;;5.25;4.00;;;;;20.20;39.59;102260.84;5001447;28;51207;-52
2021/12/20 02:58:59;;;;;;;;;7.50;6.25;;;;;20.20;39.80;102263.59;4995806;28;51311;-52
2021/12/20 03:01:24;;;;;;;;;6.75;6.25;;;;;20.19;39.42;102261.88;5010618;28;51180;-53
2021/12/20 03:03:52;;;;;;;;;7.75;6.25;;;;;20.18;39.42;102261.03;4995107;28;51098;-49
2021/12/20 03:06:24;;;;;;;;;6.00;6.00;;;;;20.16;39.82;102254.88;5009924;28;51161;-53
2021/12/20 03:08:52;;;;;;;;;6.00;5.75;;;;;20.15;39.41;102247.66;5010563;28;51298;-53
2021/12/20 03:11:21;;;;;;;;;8.00;6.25;;;;;20.16;39.72;102257.63;5007462;28;51888;-54
2021/12/20 03:13:51;;;;;;;;;7.50;4.75;;;;;20.16;39.63;102241.13;5015184;28;51037;-53
2021/12/20 03:16:16;;;;;;;;;7.00;6.25;;;;;20.14;39.56;102237.69;5004022;28;51137;-54
2021/12/20 03:18:41;;;;;;;;;6.00;6.00;;;;;20.13;39.68;102237.88;5002787;28;51201;-53
2021/12/20 03:21:07;;;;;;;;;7.00;7.00;;;;;20.12;39.63;102234.28;5004073;28;51309;-52
2021/12/20 03:23:32;;;;;;;;;8.75;6.25;;;;;20.13;39.82;102235.13;5014923;28;51065;-56
2021/12/20 03:25:57;;;;;;;;;6.50;6.50;;;;;20.13;39.73;102235.13;5012708;28;51499;-53
2021/12/20 03:28:23;;;;;;;;;6.25;6.25;;;;;20.11;39.52;102235.34;5008310;28;51316;-53
2021/12/20 03:30:48;;;;;;;;;6.25;6.25;;;;;20.10;39.65;102230.84;5017488;28;51068;-50
2021/12/20 03:33:14;;;;;;;;;8.25;8.25;;;;;20.10;39.99;102233.59;5000204;28;51173;-49
2021/12/20 03:35:39;;;;;;;;;7.50;6.00;;;;;20.09;39.83;102233.78;5007762;28;51244;-52
2021/12/20 03:38:06;;;;;;;;;8.25;7.25;;;;;20.08;39.55;102234.81;5016088;28;51168;-51
2021/12/20 03:40:32;;;;;;;;;7.50;6.50;;;;;20.08;39.92;102232.06;4998873;28;52737;-52
2021/12/20 03:42:58;;;;;;;;;5.75;4.75;;;;;20.06;39.71;102228.66;5001177;28;51110;-52
2021/12/20 03:45:23;;;;;;;;;10.75;8.75;;;;;20.06;39.79;102225.91;5002093;28;51189;-52
2021/12/20 03:47:49;;;;;;;;;6.50;6.50;;;;;20.05;39.55;102214.06;5018660;28;51340;-53
2021/12/20 03:50:15;;;;;;;;;8.00;6.75;;;;;20.04;39.82;102217.84;5014651;28;51783;-54
2021/12/20 03:52:41;;;;;;;;;8.75;7.50;;;;;20.04;39.67;102215.09;5018826;28;51350;-54
2021/12/20 03:55:13;;;;;;;;;6.00;6.00;;;;;20.03;39.57;102218.91;5017432;28;51093;-54
2021/12/20 03:57:38;;;;;;;;;7.25;6.50;;;;;20.03;39.91;102215.28;5003453;28;51138;-53
2021/12/20 04:00:11;;;;;;;;;8.00;8.00;;;;;20.01;39.57;102218.22;5017140;28;51853;-53
2021/12/20 04:02:41;;;;;;;;;7.75;7.00;;;;;20.01;39.68;102220.97;5014593;28;51368;-54
2021/12/20 04:05:08;;;;;;;;;7.25;6.25;;;;;20.00;40.12;102230.25;5016088;28;51072;-51
2021/12/20 04:07:33;;;;;;;;;8.75;7.25;;;;;19.99;39.76;102234.03;5000138;28;51331;-51
2021/12/20 04:09:59;;;;;;;;;7.50;7.50;;;;;20.00;39.98;102222.00;5011825;28;51256;-53
2021/12/20 04:12:24;;;;;;;;;6.00;6.00;;;;;19.98;39.74;102221.31;5023258;28;51137;-51
2021/12/20 04:14:50;;;;;;;;;7.00;7.00;;;;;19.98;39.76;102221.31;5008523;28;51029;-49
2021/12/20 04:17:15;;;;;;;;;8.50;8.50;;;;;19.97;39.84;102225.13;5003027;28;51376;-52
2021/12/20 04:19:40;;;;;;;;;9.75;7.75;;;;;19.98;39.90;102225.97;5003476;28;51656;-53
2021/12/20 04:22:06;;;;;;;;;9.25;7.00;;;;;19.96;39.92;102223.41;4998087;28;51069;-54
2021/12/20 04:24:31;;;;;;;;;8.00;7.25;;;;;19.97;39.62;102235.28;5014955;28;51148;-50
2021/12/20 04:26:56;;;;;;;;;7.00;7.00;;;;;19.96;39.84;102223.41;5003256;28;51139;-52
2021/12/20 04:29:22;;;;;;;;;7.25;7.25;;;;;19.95;39.72;102235.47;5005525;28;51047;-53
2021/12/20 04:31:47;;;;;;;;;6.00;6.00;;;;;19.94;39.48;102236.50;5009638;28;51044;-53
2021/12/20 04:34:13;;;;;;;;;7.00;6.75;;;;;19.94;39.73;102235.66;5014786;28;51194;-55
2021/12/20 04:36:38;;;;;;;;;8.25;8.25;;;;;19.93;40.04;102226.56;5015605;28;51145;-54
2021/12/20 04:39:08;;;;;;;;;9.25;6.00;;;;;19.93;40.00;102225.69;5008418;28;51259;-53
2021/12/20 04:41:33;;;;;;;;;6.00;6.00;;;;;19.93;39.96;102231.19;4997705;28;51076;-51
2021/12/20 04:43:59;;;;;;;;;9.75;9.25;;;;;19.92;39.71;102230.34;4997962;28;51182;-52
2021/12/20 04:46:24;;;;;;;;;13.00;8.25;;;;;19.92;39.58;102221.25;5002766;28;52469;-54
2021/12/20 04:48:49;;;;;;;;;9.50;8.00;;;;;19.90;39.82;102218.66;5009424;28;52010;-53
2021/12/20 04:51:15;;;;;;;;;8.00;6.75;;;;;19.89;39.92;102216.94;5009891;28;51101;-53
2021/12/20 04:53:40;;;;;;;;;6.50;6.00;;;;;19.88;39.64;102216.09;5019139;28;51191;-52
2021/12/20 04:56:05;;;;;;;;;8.00;7.00;;;;;19.87;40.17;102216.28;4997833;28;51170;-54
2021/12/20 04:58:31;;;;;;;;;6.50;6.25;;;;;19.87;40.08;102222.63;5009810;28;52693;-54
2021/12/20 05:00:56;;;;;;;;;7.75;6.50;;;;;19.86;40.05;102220.06;5003284;28;51095;-54
2021/12/20 05:03:21;;;;;;;;;8.00;8.00;;;;;19.85;40.15;102221.13;5013836;28;51132;-55
2021/12/20 05:05:47;;;;;;;;;7.50;6.50;;;;;19.85;39.92;102223.88;4998074;28;51979;-53
2021/12/20 05:08:13;;;;;;;;;6.50;6.50;;;;;19.84;39.75;102222.16;4996892;28;51119;-53
2021/12/20 05:10:40;;;;;;;;;9.75;8.25;;;;;19.84;39.99;102224.91;5019672;28;51140;-54
2021/12/20 05:13:09;;;;;;;;;8.75;7.25;;;;;19.82;39.85;102224.25;4996580;28;51194;-52
2021/12/20 05:15:36;;;;;;;;;11.25;7.25;;;;;19.82;39.91;102224.25;5003013;28;51221;-48
2021/12/20 05:18:02;;;;;;;;;10.00;7.00;;;;;19.80;39.96;102227.19;5003168;28;52730;-55
2021/12/20 05:20:28;;;;;;;;;8.75;6.50;;;;;19.80;40.03;102235.44;4997632;28;51057;-54
2021/12/20 05:22:54;;;;;;;;;10.25;9.25;;;;;19.80;39.92;102231.78;4998283;28;51112;-54
2021/12/20 05:25:20;;;;;;;;;8.00;6.75;;;;;19.79;39.79;102232.84;5000425;28;51263;-52
2021/12/20 05:27:46;;;;;;;;;7.75;7.75;;;;;19.79;40.00;102235.59;5015689;28;52048;-52
2021/12/20 05:30:12;;;;;;;;;10.50;7.75;;;;;19.78;39.87;102231.97;5002440;28;51113;-52
2021/12/20 05:32:38;;;;;;;;;11.50;9.00;;;;;19.77;39.98;102230.28;5015042;28;51183;-54
2021/12/20 05:35:07;;;;;;;;;9.50;7.50;;;;;19.78;40.37;102231.13;5014997;28;51102;-55
2021/12/20 05:37:32;;;;;;;;;8.00;7.50;;;;;19.77;40.00;102223.94;5017848;28;51136;-52
2021/12/20 05:39:58;;;;;;;;;7.00;7.00;;;;;19.75;39.71;102217.75;4998736;28;51073;-54
2021/12/20 05:42:23;;;;;;;;;7.50;7.50;;;;;19.75;40.09;102212.25;5004594;28;51143;-51
2021/12/20 05:44:50;;;;;;;;;6.00;6.00;;;;;19.75;39.81;102223.25;5001786;28;51022;-52
2021/12/20 05:47:17;;;;;;;;;10.50;7.75;;;;;19.75;39.88;102228.75;5002289;28;52666;-52
2021/12/20 05:49:42;;;;;;;;;7.75;7.00;;;;;19.73;40.12;102220.69;5002935;28;51247;-50
2021/12/20 05:52:08;;;;;;;;;6.25;6.25;;;;;19.73;39.96;102236.34;5017148;28;51134;-49
2021/12/20 05:54:33;;;;;;;;;7.00;7.00;;;;;19.72;39.75;102234.63;4999536;28;50964;-52
2021/12/20 05:56:59;;;;;;;;;5.25;5.25;;;;;19.72;40.45;102223.63;5015311;28;51783;-53
2021/12/20 05:59:24;;;;;;;;;8.50;6.50;;;;;19.72;39.73;102235.50;5016088;28;51169;-51
2021/12/20 06:01:50;;;;;;;;;6.25;6.25;;;;;19.71;40.10;102228.28;5001369;28;51026;-52
2021/12/20 06:04:15;;;;;;;;;6.75;6.75;;;;;19.70;40.06;102240.31;4996398;28;51292;-53
2021/12/20 06:06:40;;;;;;;;;10.50;10.00;;;;;19.70;39.85;102239.47;4996212;28;51792;-51
2021/12/20 06:09:06;;;;;;;;;14.75;13.75;;;;;19.68;38.38;102242.38;5013547;28;51250;-54
2021/12/20 06:11:31;;;;;;;;;16.50;15.50;;;;;19.65;37.84;102241.91;5010848;28;51186;-51
2021/12/20 06:13:58;;;;;;;;;20.50;19.00;;;;;19.58;37.78;102239.00;5016996;28;51184;-53
2021/12/20 06:16:24;;;;;;;;;22.00;21.50;;;;;19.52;37.50;102231.47;5017808;28;51848;-54
2021/12/20 06:18:51;;;;;;;;;25.00;23.00;;;;;19.45;37.37;102231.34;5004371;28;51211;-52
2021/12/20 06:21:18;;;;;;;;;19.75;19.50;;;;;19.41;37.17;102234.66;5005193;28;51197;-53
2021/12/20 06:23:43;;;;;;;;;22.25;17.75;;;;;19.34;37.59;102231.75;5014022;28;51426;-51
2021/12/20 06:26:08;;;;;;;;;23.50;15.25;;;;;19.31;37.42;102234.88;5014595;28;51301;-49
2021/12/20 06:28:34;;;;;;;;;18.75;16.50;;;;;19.32;37.90;102236.59;5011142;28;51388;-53
2021/12/20 06:30:59;;;;;;;;;12.00;12.00;;;;;19.36;38.94;102242.56;5010374;28;51155;-52
2021/12/20 06:33:25;;;;;;;;;13.75;11.75;;;;;19.44;38.68;102237.03;5013660;28;51236;-54
2021/12/20 06:35:51;;;;;;;;;11.75;10.00;;;;;19.51;38.61;102236.13;5001247;28;51043;-56
2021/12/20 06:38:20;;;;;;;;;11.50;8.25;;;;;19.60;38.96;102239.72;5006272;28;51295;-54
2021/12/20 06:40:46;;;;;;;;;11.00;9.00;;;;;19.68;39.13;102247.03;5010561;28;51241;-53
2021/12/20 06:43:11;;;;;;;;;6.50;6.50;;;;;19.77;39.11;102251.41;5006329;28;51069;-52
2021/12/20 06:45:37;;;;;;;;;10.25;5.75;;;;;19.84;39.58;102246.91;5003622;28;51916;-51
2021/12/20 06:48:03;;;;;;;;;6.75;6.25;;;;;19.92;39.76;102246.84;5025673;28;51115;-54
2021/12/20 06:50:29;;;;;;;;;8.50;7.75;;;;;19.99;39.17;102260.69;5000265;28;51152;-51
2021/12/20 06:52:54;;;;;;;;;8.00;6.75;;;;;20.06;40.00;102253.41;5018267;28;51211;-54
2021/12/20 06:55:20;;;;;;;;;7.00;6.00;;;;;20.13;40.11;102262.66;5007011;28;51654;-54
2021/12/20 06:57:45;;;;;;;;;7.00;6.75;;;;;20.21;39.70;102264.44;5006004;28;51189;-55
2021/12/20 07:00:11;;;;;;;;;6.75;4.25;;;;;20.28;40.18;102270.94;5005318;28;50975;-52
2021/12/20 07:02:36;;;;;;;;;4.25;4.25;;;;;20.33;39.78;102262.97;5010001;28;51137;-53
2021/12/20 07:05:01;;;;;;;;;6.25;2.00;;;;;20.38;40.69;102260.50;5001184;28;51988;-53
2021/12/20 07:07:28;;;;;;;;;5.75;4.25;;;;;20.42;40.27;102272.84;5015624;28;51219;-53
2021/12/20 07:09:53;;;;;;;;;5.00;4.75;;;;;20.42;40.75;102267.31;4996196;28;52449;-51
2021/12/20 07:12:18;;;;;;;;;4.25;4.25;;;;;20.39;40.17;102279.56;5013404;28;51094;-54
2021/12/20 07:14:44;;;;;;;;;4.00;2.75;;;;;20.42;40.44;102272.84;5014277;28;52200;-53
2021/12/20 07:17:09;;;;;;;;;5.25;4.75;;;;;20.45;40.47;102264.25;5004429;28;52368;-51
2021/12/20 07:19:34;;;;;;;;;7.25;6.00;;;;;20.48;40.37;102266.63;5014130;28;51131;-50
2021/12/20 07:22:00;;;;;;;;;6.00;5.00;;;;;20.50;40.30;102255.41;5019864;28;52325;-56
2021/12/20 07:24:25;;;;;;;;;5.25;5.00;;;;;20.52;39.85;102262.44;5014444;28;51843;-51
2021/12/20 07:26:51;;;;;;;;;5.50;5.50;;;;;20.56;39.59;102272.06;5013690;28;51215;-50
2021/12/20 07:29:17;;;;;;;;;6.25;5.75;;;;;20.62;39.68;102271.28;4998094;28;51187;-56
2021/12/20 07:31:43;;;;;;;;;4.00;4.00;;;;;20.65;39.71;102262.66;5000842;28;51148;-57
2021/12/20 07:34:10;;;;;;;;;5.00;5.00;;;;;20.67;39.88;102268.81;5010971;28;51983;-54
2021/12/20 07:36:36;;;;;;;;;10.50;8.75;;;;;20.69;40.47;102252.09;5002340;28;51377;-54
2021/12/20 07:39:02;;;;;;;;;8.00;5.75;;;;;20.69;39.84;102268.63;4997017;28;51761;-54
2021/12/20 07:41:27;;;;;;;;;6.75;5.75;;;;;20.68;40.12;102270.53;5005108;28;51536;-56
2021/12/20 07:43:53;;;;;;;;;6.25;6.25;;;;;20.68;39.97;102278.78;5012823;28;53770;-50
2021/12/20 07:46:19;;;;;;;;;9.00;8.25;;;;;20.70;39.84;102271.19;5010996;28;51110;-53
2021/12/20 07:48:44;;;;;;;;;9.00;9.00;;;;;20.73;39.82;102272.69;5004038;28;51091;-50
2021/12/20 07:51:10;;;;;;;;;8.25;6.75;;;;;20.73;39.50;102276.31;5012748;28;51665;-55
2021/12/20 07:53:35;;;;;;;;;12.25;10.75;;;;;20.69;39.64;102269.47;5014004;28;51097;-54
2021/12/20 07:56:01;;;;;;;;;9.25;8.25;;;;;20.65;39.65;102278.31;5001724;28;51108;-53
2021/12/20 07:58:26;;;;;;;;;13.00;9.25;;;;;20.59;39.36;102284.56;5004346;28;51069;-54
2021/12/20 08:00:52;;;;;;;;;12.00;7.75;;;;;20.52;39.83;102278.97;5010661;28;51306;-53
2021/12/20 08:03:18;;;;;;;;;13.00;9.75;;;;;20.47;39.64;102275.94;5013849;28;51800;-55
2021/12/20 08:05:44;;;;;;;;;13.00;10.00;;;;;20.42;39.47;102272.84;4997959;28;51004;-54
2021/12/20 08:08:09;;;;;;;;;14.25;9.75;;;;;20.38;39.94;102277.00;4997373;28;51284;-54
2021/12/20 08:10:35;;;;;;;;;11.00;9.00;;;;;20.33;39.77;102282.25;5008880;28;51035;-54
2021/12/20 08:13:01;;;;;;;;;12.75;11.00;;;;;20.28;39.89;102273.69;4998108;28;51979;-55
2021/12/20 08:15:27;;;;;;;;;13.25;10.25;;;;;20.23;39.92;102271.50;4999999;28;51098;-55
2021/12/20 08:17:54;;;;;;;;;10.00;10.00;;;;;20.18;40.11;102272.03;4999197;28;51070;-55
2021/12/20 08:20:20;;;;;;;;;10.75;9.00;;;;;20.13;40.07;102270.91;5008654;28;51352;-52
2021/12/20 08:22:46;;;;;;;;;8.75;8.75;;;;;20.10;40.05;102280.34;4998875;28;51272;-54
2021/12/20 08:25:13;;;;;;;;;10.75;10.50;;;;;20.06;40.12;102273.53;4999019;28;51109;-54
2021/12/20 08:27:39;;;;;;;;;8.25;7.75;;;;;20.03;40.39;102281.31;5011165;28;51150;-55
2021/12/20 08:30:06;;;;;;;;;7.50;7.00;;;;;20.00;40.41;102285.25;5013724;28;51255;-54
2021/12/20 08:32:32;;;;;;;;;8.00;7.00;;;;;19.96;40.23;102286.69;4996803;28;53405;-55
2021/12/20 08:34:57;;;;;;;;;8.50;6.75;;;;;19.95;40.57;102284.13;4997129;28;51177;-56
2021/12/20 08:37:23;;;;;;;;;8.75;8.50;;;;;19.92;41.05;102288.09;5007398;28;51208;-52
2021/12/20 08:39:48;;;;;;;;;6.75;6.50;;;;;19.89;40.70;102296.69;5015047;28;51252;-55
2021/12/20 08:42:14;;;;;;;;;8.75;7.50;;;;;19.86;41.03;102300.66;5011055;28;51896;-55
2021/12/20 08:44:39;;;;;;;;;6.50;5.50;;;;;19.83;41.23;102295.56;5014531;28;51247;-56
2021/12/20 08:47:05;;;;;;;;;8.50;7.50;;;;;19.80;40.99;102290.44;5009200;28;51256;-56
2021/12/20 08:49:30;;;;;;;;;7.00;7.00;;;;;19.78;41.21;102294.38;4997968;28;51158;-52
2021/12/20 08:51:57;;;;;;;;;10.50;7.50;;;;;19.75;41.29;102294.75;5010095;28;54447;-56
2021/12/20 08:54:24;;;;;;;;;8.00;7.75;;;;;19.73;40.95;102314.19;5010166;28;51211;-57
2021/12/20 08:56:51;;;;;;;;;9.00;7.75;;;;;19.71;41.55;102309.91;5010229;28;51226;-55
2021/12/20 08:59:16;;;;;;;;;8.00;6.50;;;;;19.71;41.44;102304.41;5001050;28;51187;-55
2021/12/20 09:01:42;;;;;;;;;8.00;7.00;;;;;19.70;41.50;102306.31;5001942;28;51075;-57
2021/12/20 09:04:09;;;;;;;;;8.75;6.50;;;;;19.70;41.26;102305.44;5012245;28;51304;-56
2021/12/20 09:06:38;;;;;;;;;9.75;9.75;;;;;19.68;41.20;102307.50;5015322;28;51268;-56
2021/12/20 09:09:05;;;;;;;;;8.00;6.75;;;;;19.65;41.56;102307.88;5012969;28;51215;-56
2021/12/20 09:11:31;;;;;;;;;7.00;6.00;;;;;19.63;41.56;102312.69;4997306;28;51899;-55
2021/12/20 09:13:56;;;;;;;;;5.25;5.00;;;;;19.60;41.63;102314.78;5001380;28;51077;-55
2021/12/20 09:16:22;;;;;;;;;6.00;5.00;;;;;19.58;41.39;102311.34;5002139;28;51141;-55
2021/12/20 09:18:48;;;;;;;;;8.00;5.75;;;;;19.58;41.39;102304.97;5014133;28;51253;-55
2021/12/20 09:21:15;;;;;;;;;8.25;6.50;;;;;19.58;41.21;102304.97;5009180;28;52953;-56
2021/12/20 09:23:41;;;;;;;;;10.00;7.50;;;;;19.57;41.23;102309.63;5001687;28;51587;-53
2021/12/20 09:26:06;;;;;;;;;5.25;5.25;;;;;19.56;41.50;102313.41;5012413;28;52732;-52
2021/12/20 09:28:32;;;;;;;;;7.25;5.50;;;;;19.55;41.36;102310.81;4998499;28;51018;-55
2021/12/20 09:30:58;;;;;;;;;7.50;7.50;;;;;19.53;41.39;102305.50;4997326;28;52698;-53
2021/12/20 09:33:24;;;;;;;;;8.25;7.75;;;;;19.52;41.11;102311.19;4999722;28;51365;-58
2021/12/20 09:35:50;;;;;;;;;7.00;7.00;;;;;19.54;40.88;102306.34;5008934;28;51129;-54
2021/12/20 09:38:18;;;;;;;;;6.00;5.00;;;;;19.60;40.73;102316.69;5008201;28;51358;-55
2021/12/20 09:41:12;;;;;;;;;7.50;6.50;;;;;19.71;41.18;102313.50;5005475;28;51707;-53
2021/12/20 09:43:31;;;;;;;;;7.25;5.50;;;;;19.83;40.87;102314.78;5008632;28;51516;-55
2021/12/20 09:45:57;;;;;;;;;6.25;5.25;;;;;19.94;40.65;102307.16;5004233;28;51213;-56
2021/12/20 09:48:22;;;;;;;;;7.00;6.00;;;;;20.05;40.58;102314.97;5007976;28;50979;-54
2021/12/20 09:50:48;;;;;;;;;6.25;5.00;;;;;20.14;40.58;102313.88;5011560;28;51684;-55
2021/12/20 09:53:14;;;;;;;;;4.50;4.50;;;;;20.23;40.41;102311.91;5000538;28;51345;-56
2021/12/20 09:55:45;;;;;;;;;6.50;6.00;;;;;20.33;40.57;102318.00;5009556;28;51017;-55
2021/12/20 09:58:10;;;;;;;;;5.50;5.50;;;;;20.42;40.45;102319.63;5006465;28;51049;-56
2021/12/20 10:00:37;;;;;;;;;6.75;5.50;;;;;20.51;40.36;102317.69;5000545;28;52261;-55
2021/12/20 10:03:03;;;;;;;;;6.25;4.75;;;;;20.59;40.21;102310.22;4995531;28;51245;-56
2021/12/20 10:05:29;;;;;;;;;5.75;5.75;;;;;20.66;39.97;102322.19;4998834;28;51292;-55
2021/12/20 10:07:56;;;;;;;;;7.00;5.75;;;;;20.70;40.12;102314.41;4999201;28;51474;-56
2021/12/20 10:10:48;;;;;;;;;6.25;5.25;;;;;20.72;39.95;102317.81;5002795;28;51266;-56
2021/12/20 10:13:24;;;;;;;;;6.00;5.00;;;;;20.74;39.81;102327.63;4999076;28;51527;-55
2021/12/20 10:15:51;;;;;;;;;4.25;4.25;;;;;20.76;40.37;102319.16;5006033;28;51926;-56
2021/12/20 10:18:16;;;;;;;;;7.00;5.00;;;;;20.76;39.76;102321.91;5001012;28;51341;-57
2021/12/20 10:20:49;;;;;;;;;6.00;4.00;;;;;20.79;40.00;102324.28;4998267;28;52934;-55
2021/12/20 10:23:26;;;;;;;;;5.75;5.00;;;;;20.80;40.14;102319.63;4997312;28;51342;-56
2021/12/20 10:25:54;;;;;;;;;4.50;3.75;;;;;20.82;40.11;102317.53;5000747;28;51519;-56
2021/12/20 10:28:23;;;;;;;;;4.00;4.00;;;;;20.84;39.96;102316.31;4996601;28;51299;-56
2021/12/20 10:30:57;;;;;;;;;6.50;5.75;;;;;20.86;40.25;102327.16;4997529;28;51557;-57
2021/12/20 10:33:24;;;;;;;;;5.00;5.00;;;;;20.87;39.79;102317.84;4997929;28;50980;-56
2021/12/20 10:35:52;;;;;;;;;10.00;7.00;;;;;20.90;39.64;102317.44;5002269;28;51145;-57
2021/12/20 10:38:18;;;;;;;;;5.25;3.75;;;;;20.92;39.79;102326.38;4998365;28;51232;-55
2021/12/20 10:40:47;;;;;;;;;5.33;5.33;;;;;20.92;39.72;102305.19;4994754;28;51904;-54
2021/12/20 10:43:15;;;;;;;;;7.25;5.25;;;;;20.94;39.74;102305.84;4999291;28;50970;-54
2021/12/20 10:45:41;;;;;;;;;7.25;5.00;;;;;20.96;39.93;102302.94;4997215;28;51339;-56
2021/12/20 10:48:11;;;;;;;;;5.75;5.00;;;;;20.97;39.72;102305.50;5006669;28;51520;-56
2021/12/20 10:50:42;;;;;;;;;6.00;6.00;;;;;20.98;39.72;102298.94;4994904;28;52528;-55
2021/12/20 10:53:24;;;;;;;;;6.00;5.00;;;;;21.00;40.00;102301.50;5002606;28;51291;-56
2021/12/20 10:55:52;;;;;;;;;4.50;4.00;;;;;21.01;40.28;102294.94;5002130;28;51147;-55
2021/12/20 10:58:37;;;;;;;;;5.00;5.00;;;;;21.01;39.68;102295.78;4996722;28;51355;-55
2021/12/20 11:01:30;;;;;;;;;4.25;4.00;;;;;21.03;39.71;102298.34;4993266;28;51193;-56
2021/12/20 11:04:08;;;;;;;;;4.00;4.00;;;;;21.07;39.66;102299.69;4998036;28;51349;-51
2021/12/20 11:09:15;;;;;;;;;4.00;3.25;;;;;21.10;39.64;102303.94;5004576;28;51629;-55
2021/12/20 11:11:46;;;;;;;;;6.50;6.50;;;;;21.09;39.93;102302.25;5007703;28;52834;-52
2021/12/20 11:14:11;;;;;;;;;5.50;4.25;;;;;21.08;39.69;102295.88;5015195;28;51235;-53
2021/12/20 11:16:46;;;;;;;;;7.00;6.50;;;;;21.07;39.70;102280.41;5012286;28;51141;-54
2021/12/20 11:19:26;;;;;;;;;6.50;5.00;;;;;21.10;39.79;102290.19;5003520;28;51139;-55
2021/12/20 11:21:54;;;;;;;;;5.75;4.75;;;;;21.10;39.34;102293.78;5012347;28;52301;-56
2021/12/20 11:24:26;;;;;;;;;4.00;4.00;;;;;21.11;39.23;102287.22;5012547;28;51247;-55
2021/12/20 11:26:52;;;;;;;;;4.50;4.00;;;;;21.11;39.80;102284.47;5008480;28;51316;-54
2021/12/20 11:29:19;;;;;;;;;6.75;5.75;;;;;21.11;39.45;102278.97;5018352;28;51231;-54
2021/12/20 11:31:45;;;;;;;;;5.75;5.00;;;;;21.12;39.67;102271.53;5006616;28;51216;-54
2021/12/20 11:34:12;;;;;;;;;4.00;4.00;;;;;21.14;39.96;102272.19;5005600;28;51378;-54
2021/12/20 11:36:37;;;;;;;;;4.25;4.25;;;;;21.15;39.75;102263.75;5000670;28;51098;-56
2021/12/20 11:39:06;;;;;;;;;4.75;4.75;;;;;21.15;39.85;102266.50;5001891;28;51423;-57
2021/12/20 11:41:32;;;;;;;;;3.00;3.00;;;;;21.16;39.84;102265.47;5011025;28;52204;-58